createdAt,value
2017-10-19T00:01:35.717Z,13.20
2017-10-19T00:04:03.858Z,13.32
2017-10-19T00:06:32.188Z,12.77
2017-10-19T00:09:00.391Z,12.52
2017-10-19T00:11:28.528Z,11.75
2017-10-19T00:13:56.694Z,11.93
2017-10-19T00:16:24.828Z,12.80
2017-10-19T00:18:53.764Z,12.57
2017-10-19T00:21:21.901Z,12.90
2017-10-19T00:23:51.067Z,11.27
2017-10-19T00:26:19.217Z,13.38
2017-10-19T00:28:47.381Z,12.55
2017-10-19T00:31:15.518Z,12.55
2017-10-19T00:33:44.427Z,12.45
2017-10-19T00:36:12.588Z,12.77
2017-10-19T00:38:40.730Z,13.25
2017-10-19T00:41:09.008Z,13.50
2017-10-19T00:43:37.138Z,12.77
2017-10-19T00:46:05.282Z,12.65
2017-10-19T00:48:33.460Z,13.25
2017-10-19T00:51:01.609Z,14.60
2017-10-19T00:53:29.772Z,13.15
2017-10-19T00:55:57.925Z,14.68
2017-10-19T00:58:26.219Z,12.63
2017-10-19T01:00:54.365Z,14.50
2017-10-19T01:03:22.509Z,13.25
2017-10-19T01:05:50.691Z,14.23
2017-10-19T01:08:18.858Z,13.73
2017-10-19T01:10:46.990Z,14.35
2017-10-19T01:13:15.138Z,13.85
2017-10-19T01:15:43.418Z,13.27
2017-10-19T01:18:11.563Z,12.63
2017-10-19T01:20:39.705Z,14.13
2017-10-19T01:23:08.646Z,13.40
2017-10-19T01:25:36.790Z,12.30
2017-10-19T01:28:04.961Z,13.43
2017-10-19T01:30:33.108Z,12.75
2017-10-19T01:33:01.376Z,12.93
2017-10-19T01:35:29.530Z,14.35
2017-10-19T01:37:57.667Z,14.60
2017-10-19T01:40:25.841Z,13.20
2017-10-19T01:42:54.000Z,13.32
2017-10-19T01:45:22.140Z,12.80
2017-10-19T01:47:50.313Z,13.50
2017-10-19T01:50:18.457Z,13.20
2017-10-19T01:52:46.730Z,13.62
2017-10-19T01:55:14.878Z,13.77
2017-10-19T01:57:43.060Z,14.20
2017-10-19T02:00:11.192Z,13.07
2017-10-19T02:02:39.339Z,12.60
2017-10-19T02:05:07.621Z,13.00
2017-10-19T02:07:35.791Z,14.32
2017-10-19T02:10:04.056Z,14.50
2017-10-19T02:12:32.213Z,14.55
2017-10-19T02:15:00.352Z,13.27
2017-10-19T02:17:29.280Z,13.55
2017-10-19T02:19:57.421Z,13.25
2017-10-19T02:22:25.641Z,14.00
2017-10-19T02:24:53.797Z,12.90
2017-10-19T02:27:21.941Z,14.48
2017-10-19T02:29:50.104Z,14.27
2017-10-19T02:32:19.037Z,13.50
2017-10-19T02:34:47.200Z,13.25
2017-10-19T02:37:15.373Z,14.75
2017-10-19T02:39:43.640Z,13.95
2017-10-19T02:42:11.840Z,14.07
2017-10-19T02:44:40.020Z,14.35
2017-10-19T02:47:08.917Z,15.45
2017-10-19T02:49:37.081Z,13.75
2017-10-19T02:52:05.225Z,13.57
2017-10-19T02:54:33.500Z,13.30
2017-10-19T02:57:01.644Z,13.85
2017-10-19T02:59:29.809Z,14.32
2017-10-19T03:01:57.948Z,15.32
2017-10-19T03:04:26.116Z,15.18
2017-10-19T03:06:54.260Z,13.70
2017-10-19T03:09:23.305Z,14.57
2017-10-19T03:11:51.473Z,15.15
2017-10-19T03:14:19.618Z,14.80
2017-10-19T03:16:47.816Z,14.60
2017-10-19T03:19:15.964Z,14.75
2017-10-19T03:21:44.124Z,15.30
2017-10-19T03:24:12.293Z,15.15
2017-10-19T03:26:40.464Z,16.02
2017-10-19T03:29:08.643Z,16.00
2017-10-19T03:31:36.925Z,15.43
2017-10-19T03:34:05.112Z,16.25
2017-10-19T03:36:33.252Z,15.70
2017-10-19T03:39:02.168Z,16.27
2017-10-19T03:41:30.328Z,15.32
2017-10-19T03:43:58.478Z,15.73
2017-10-19T03:46:26.746Z,16.25
2017-10-19T03:48:54.893Z,14.87
2017-10-19T03:51:23.088Z,16.58
2017-10-19T03:53:51.267Z,15.63
2017-10-19T03:56:19.428Z,15.40
2017-10-19T03:58:47.588Z,15.68
2017-10-19T04:01:15.729Z,14.98
2017-10-19T04:03:43.926Z,15.07
2017-10-19T04:06:12.065Z,15.50
2017-10-19T04:08:41.112Z,15.52
2017-10-19T04:11:09.256Z,15.45
2017-10-19T04:13:37.440Z,15.70
2017-10-19T04:16:05.591Z,15.45
2017-10-19T04:18:34.489Z,15.23
2017-10-19T04:21:02.675Z,16.42
2017-10-19T04:23:30.826Z,15.65
2017-10-19T04:25:59.098Z,17.00
2017-10-19T04:28:28.013Z,15.38
2017-10-19T04:30:56.188Z,16.50
2017-10-19T04:33:24.330Z,17.08
2017-10-19T04:35:53.302Z,16.85
2017-10-19T04:38:21.444Z,15.32
2017-10-19T04:40:49.613Z,15.30
2017-10-19T04:43:17.758Z,16.50
2017-10-19T04:45:45.933Z,14.52
2017-10-19T04:48:14.089Z,16.87
2017-10-19T04:50:43.139Z,16.27
2017-10-19T04:53:11.317Z,15.55
2017-10-19T04:55:39.461Z,15.40
2017-10-19T04:58:07.613Z,15.98
2017-10-19T05:00:35.896Z,15.93
2017-10-19T05:03:04.048Z,16.98
2017-10-19T05:05:32.245Z,16.55
2017-10-19T05:08:00.423Z,17.12
2017-10-19T05:10:28.568Z,15.88
2017-10-19T05:12:57.500Z,16.73
2017-10-19T05:15:25.665Z,16.08
2017-10-19T05:17:53.953Z,16.33
2017-10-19T05:20:22.100Z,16.10
2017-10-19T05:22:50.268Z,17.30
2017-10-19T05:25:18.419Z,16.10
2017-10-19T05:27:46.600Z,15.65
2017-10-19T05:30:14.751Z,17.30
2017-10-19T05:32:42.889Z,15.48
2017-10-19T05:35:11.156Z,17.30
2017-10-19T05:37:39.307Z,16.33
2017-10-19T05:40:08.344Z,16.37
2017-10-19T05:42:36.521Z,17.20
2017-10-19T05:45:04.677Z,16.42
2017-10-19T05:47:32.820Z,17.58
2017-10-19T05:50:01.764Z,17.20
2017-10-19T05:52:29.905Z,16.83
2017-10-19T05:54:58.181Z,15.93
2017-10-19T05:57:26.322Z,18.40
2017-10-19T05:59:55.269Z,18.40
2017-10-19T06:02:23.405Z,16.40
2017-10-19T06:04:51.550Z,17.98
2017-10-19T06:07:19.721Z,18.80
2017-10-19T06:09:47.871Z,17.48
2017-10-19T06:12:16.148Z,18.52
2017-10-19T06:14:44.297Z,17.83
2017-10-19T06:17:12.473Z,17.58
2017-10-19T06:19:40.616Z,17.75
2017-10-19T06:22:09.546Z,18.00
2017-10-19T06:24:37.699Z,17.40
2017-10-19T06:27:06.006Z,18.80
2017-10-19T06:29:34.150Z,17.83
2017-10-19T06:32:02.287Z,18.08
2017-10-19T06:34:30.468Z,18.95
2017-10-19T06:36:58.614Z,17.17
2017-10-19T06:39:26.776Z,15.77
2017-10-19T06:41:54.922Z,16.80
2017-10-19T06:44:23.204Z,16.15
2017-10-19T06:46:51.357Z,16.40
2017-10-19T06:49:19.530Z,17.23
2017-10-19T06:51:47.664Z,17.15
2017-10-19T06:54:15.813Z,17.23
2017-10-19T06:56:51.074Z,17.20
2017-10-19T06:59:19.350Z,17.37
2017-10-19T07:01:47.523Z,18.15
2017-10-19T07:04:15.657Z,18.77
2017-10-19T07:06:43.829Z,18.05
2017-10-19T07:09:11.979Z,18.45
2017-10-19T07:11:40.905Z,17.67
2017-10-19T07:14:09.049Z,17.25
2017-10-19T07:16:37.253Z,17.08
2017-10-19T07:19:05.388Z,17.25
2017-10-19T07:21:34.330Z,16.25
2017-10-19T07:24:02.523Z,17.10
2017-10-19T07:26:30.656Z,16.80
2017-10-19T07:28:58.829Z,16.05
2017-10-19T07:31:26.961Z,15.95
2017-10-19T07:33:56.005Z,16.50
2017-10-19T07:36:24.160Z,17.52
2017-10-19T07:38:52.355Z,16.30
2017-10-19T07:41:20.485Z,18.35
2017-10-19T07:43:49.421Z,17.55
2017-10-19T07:46:17.615Z,16.90
2017-10-19T07:48:45.764Z,16.90
2017-10-19T07:51:14.102Z,16.42
2017-10-19T07:53:43.024Z,17.37
2017-10-19T07:56:11.200Z,16.50
2017-10-19T07:58:39.356Z,17.70
2017-10-19T08:01:07.526Z,17.30
2017-10-19T08:03:35.671Z,17.05
2017-10-19T08:06:03.888Z,16.33
2017-10-19T08:08:32.026Z,18.52
2017-10-19T08:11:00.928Z,17.52
2017-10-19T08:13:29.860Z,18.08
2017-10-19T08:15:58.017Z,19.20
2017-10-19T08:18:26.205Z,17.83
2017-10-19T08:20:54.351Z,18.00
2017-10-19T08:23:23.441Z,19.92
2017-10-19T08:25:52.361Z,16.58
2017-10-19T08:28:20.485Z,17.65
2017-10-19T08:30:49.424Z,18.00
2017-10-19T08:33:17.574Z,18.83
2017-10-19T08:35:45.766Z,18.83
2017-10-19T08:38:13.934Z,18.35
2017-10-19T08:40:42.087Z,17.83
2017-10-19T08:43:11.006Z,18.87
2017-10-19T08:45:39.303Z,18.02
2017-10-19T08:48:07.447Z,18.25
2017-10-19T08:50:35.610Z,17.58
2017-10-19T08:53:03.786Z,17.65
2017-10-19T08:55:32.725Z,18.05
2017-10-19T08:58:00.881Z,17.62
2017-10-19T09:00:29.021Z,17.40
2017-10-19T09:02:57.309Z,17.20
2017-10-19T09:05:25.470Z,17.20
2017-10-19T09:07:53.640Z,17.10
2017-10-19T09:10:21.786Z,17.15
2017-10-19T09:12:50.081Z,16.25
2017-10-19T09:15:18.996Z,16.17
2017-10-19T09:17:47.896Z,15.85
2017-10-19T09:20:16.069Z,16.92
2017-10-19T09:22:44.221Z,16.80
2017-10-19T09:25:12.413Z,15.70
2017-10-19T09:27:40.569Z,16.83
2017-10-19T09:30:08.739Z,16.25
2017-10-19T09:32:36.887Z,16.52
2017-10-19T09:35:05.160Z,17.05
2017-10-19T09:37:33.306Z,17.20
2017-10-19T09:40:01.481Z,16.35
2017-10-19T09:42:29.625Z,17.30
2017-10-19T09:44:57.805Z,17.95
2017-10-19T09:47:25.976Z,17.35
2017-10-19T09:49:54.116Z,17.58
2017-10-19T09:52:23.097Z,18.85
2017-10-19T09:54:51.257Z,18.40
2017-10-19T09:57:19.418Z,18.08
2017-10-19T09:59:47.565Z,16.17
2017-10-19T10:02:15.841Z,17.45
2017-10-19T10:04:43.972Z,16.30
2017-10-19T10:07:12.910Z,17.25
2017-10-19T10:09:41.082Z,17.25
2017-10-19T10:12:09.236Z,15.43
2017-10-19T10:14:37.411Z,15.65
2017-10-19T10:17:05.571Z,14.23
2017-10-19T10:19:34.612Z,14.13
2017-10-19T10:22:02.760Z,15.48
2017-10-19T10:24:30.983Z,15.13
2017-10-19T10:26:59.113Z,14.10
2017-10-19T10:29:27.258Z,15.38
2017-10-19T10:31:56.183Z,13.75
2017-10-19T10:34:24.325Z,14.75
2017-10-19T10:36:53.371Z,15.02
2017-10-19T10:39:21.541Z,15.20
2017-10-19T10:41:49.832Z,14.27
2017-10-19T10:44:18.023Z,13.98
2017-10-19T10:46:46.161Z,13.85
2017-10-19T10:49:14.329Z,14.20
2017-10-19T10:51:42.479Z,13.57
2017-10-19T10:54:10.672Z,15.20
2017-10-19T10:56:38.866Z,13.05
2017-10-19T10:59:07.000Z,14.35
2017-10-19T11:01:36.044Z,12.95
2017-10-19T11:04:04.218Z,13.10
2017-10-19T11:06:32.398Z,13.15
2017-10-19T11:09:00.542Z,12.60
2017-10-19T11:11:28.825Z,11.63
2017-10-19T11:13:56.996Z,11.65
2017-10-19T11:16:25.191Z,12.32
2017-10-19T11:18:53.364Z,12.60
2017-10-19T11:21:21.548Z,11.57
2017-10-19T11:23:50.479Z,12.02
2017-10-19T11:26:18.636Z,11.43
2017-10-19T11:28:47.686Z,11.67
2017-10-19T11:31:15.830Z,11.75
2017-10-19T11:33:44.041Z,12.18
2017-10-19T11:36:12.181Z,12.30
2017-10-19T11:38:40.357Z,12.15
2017-10-19T11:41:08.506Z,12.10
2017-10-19T11:43:36.691Z,12.20
2017-10-19T11:46:04.843Z,11.43
2017-10-19T11:48:33.906Z,12.80
2017-10-19T11:51:02.060Z,12.57
2017-10-19T11:53:30.220Z,12.73
2017-10-19T11:55:58.414Z,12.30
2017-10-19T11:58:26.562Z,12.50
2017-10-19T12:00:54.857Z,12.00
2017-10-19T12:03:23.013Z,11.97
2017-10-19T12:05:51.161Z,12.33
2017-10-19T12:08:20.094Z,11.40
2017-10-19T12:10:48.252Z,12.03
2017-10-19T12:13:16.422Z,12.63
2017-10-19T12:15:44.581Z,10.53
2017-10-19T12:18:12.859Z,12.30
2017-10-19T12:20:41.036Z,13.17
2017-10-19T12:23:09.174Z,12.63
2017-10-19T12:25:38.149Z,12.20
2017-10-19T12:28:06.306Z,11.40
2017-10-19T12:30:34.443Z,10.80
2017-10-19T12:33:02.634Z,11.73
2017-10-19T12:35:30.842Z,12.27
2017-10-19T12:37:59.006Z,11.60
2017-10-19T12:40:27.164Z,11.10
2017-10-19T12:42:55.356Z,10.97
2017-10-19T12:45:23.481Z,10.57
2017-10-19T12:47:51.663Z,10.80
2017-10-19T12:50:19.837Z,10.37
2017-10-19T12:52:47.981Z,12.20
2017-10-19T12:55:17.026Z,10.47
2017-10-19T12:57:45.212Z,10.50
2017-10-19T13:00:13.398Z,10.50
2017-10-19T13:02:41.518Z,9.83
2017-10-19T13:05:12.150Z,9.63
2017-10-19T13:07:40.341Z,9.50
2017-10-19T13:10:08.524Z,9.23
2017-10-19T13:12:36.678Z,9.03
2017-10-19T13:15:04.841Z,9.27
2017-10-19T13:17:33.022Z,9.80
2017-10-19T13:20:01.302Z,9.03
2017-10-19T13:22:29.452Z,10.37
2017-10-19T13:24:58.431Z,8.60
2017-10-19T13:27:26.562Z,9.00
2017-10-19T13:29:54.758Z,8.37
2017-10-19T13:32:22.924Z,8.03
2017-10-19T13:34:51.073Z,8.17
2017-10-19T13:37:19.345Z,7.93
2017-10-19T13:39:47.497Z,9.03
2017-10-19T13:42:15.815Z,8.60
2017-10-19T13:44:43.995Z,8.90
2017-10-19T13:47:12.169Z,8.03
2017-10-19T13:49:40.343Z,8.37
2017-10-19T13:52:08.496Z,7.50
2017-10-19T13:54:36.770Z,8.17
2017-10-19T13:57:04.916Z,7.83
2017-10-19T13:59:33.853Z,8.50
2017-10-19T14:02:02.019Z,7.43
2017-10-19T14:04:30.159Z,7.90
2017-10-19T14:06:58.344Z,8.20
2017-10-19T14:09:26.510Z,7.50
2017-10-19T14:11:54.821Z,6.23
2017-10-19T14:14:22.946Z,8.10
2017-10-19T14:16:51.878Z,7.23
2017-10-19T14:19:20.053Z,7.70
2017-10-19T14:21:48.209Z,7.17
2017-10-19T14:24:16.346Z,7.13
2017-10-19T14:26:44.490Z,7.33
2017-10-19T14:29:12.752Z,6.40
2017-10-19T14:31:40.890Z,6.30
2017-10-19T14:34:09.057Z,7.63
2017-10-19T14:36:37.962Z,6.73
2017-10-19T14:39:06.143Z,7.20
2017-10-19T14:41:34.289Z,8.73
2017-10-19T14:44:03.350Z,7.77
2017-10-19T14:46:31.484Z,7.27
2017-10-19T14:48:59.661Z,7.10
2017-10-19T14:51:27.797Z,6.67
2017-10-19T14:53:56.737Z,6.73
2017-10-19T14:56:24.878Z,7.13
2017-10-19T14:58:53.056Z,7.77
2017-10-19T15:01:21.959Z,8.00
2017-10-19T15:03:50.168Z,6.60
2017-10-19T15:06:18.309Z,6.30
2017-10-19T15:08:46.437Z,6.70
2017-10-19T15:11:14.593Z,6.37
2017-10-19T15:13:42.729Z,6.57
2017-10-19T15:16:14.955Z,6.57
2017-10-19T15:18:46.902Z,7.03
2017-10-19T15:21:17.713Z,7.33
2017-10-19T15:23:48.252Z,7.20
2017-10-19T15:26:19.211Z,6.10
2017-10-19T15:28:52.699Z,7.05
2017-10-19T15:31:23.168Z,7.10
2017-10-19T15:33:52.711Z,6.87
2017-10-19T15:36:23.057Z,6.47
2017-10-19T15:38:54.926Z,6.70
2017-10-19T15:41:24.898Z,6.90
2017-10-19T15:43:56.293Z,5.95
2017-10-19T15:46:26.607Z,6.90
2017-10-19T15:48:57.349Z,6.67
2017-10-19T15:51:28.035Z,7.15
2017-10-19T15:53:58.352Z,7.27
2017-10-19T15:56:28.544Z,7.60
2017-10-19T15:58:58.110Z,6.83
2017-10-19T16:01:30.195Z,6.50
2017-10-19T16:04:02.756Z,6.78
2017-10-19T16:06:32.900Z,6.80
2017-10-19T16:09:05.013Z,7.82
2017-10-19T16:11:34.109Z,7.03
2017-10-19T16:14:02.395Z,7.10
2017-10-19T16:16:30.532Z,7.15
2017-10-19T16:18:58.720Z,7.22
2017-10-19T16:21:26.861Z,7.03
2017-10-19T16:23:55.043Z,7.50
2017-10-19T16:26:23.196Z,7.78
2017-10-19T16:28:51.507Z,7.65
2017-10-19T16:31:20.453Z,6.85
2017-10-19T16:33:48.613Z,7.25
2017-10-19T16:36:16.786Z,7.55
2017-10-19T16:38:44.930Z,6.95
2017-10-19T16:41:13.114Z,8.20
2017-10-19T16:43:41.260Z,7.57
2017-10-19T16:46:09.539Z,8.35
2017-10-19T16:48:38.466Z,7.68
2017-10-19T16:51:06.609Z,7.32
2017-10-19T16:53:35.542Z,7.75
2017-10-19T16:56:04.939Z,8.02
2017-10-19T16:58:33.090Z,7.78
2017-10-19T17:01:01.215Z,8.30
2017-10-19T17:03:31.234Z,8.80
2017-10-19T17:05:59.383Z,8.02
2017-10-19T17:08:27.562Z,15.82
2017-10-19T17:10:55.711Z,13.30
2017-10-19T17:13:23.873Z,10.00
2017-10-19T17:15:52.082Z,10.48
2017-10-19T17:18:20.314Z,10.13
2017-10-19T17:20:48.573Z,8.98
2017-10-19T17:23:16.792Z,9.15
2017-10-19T17:25:45.113Z,9.70
2017-10-19T17:28:13.376Z,8.57
2017-10-19T17:30:41.645Z,9.38
2017-10-19T17:33:09.916Z,9.70
2017-10-19T17:35:38.164Z,8.75
2017-10-19T17:38:06.400Z,10.30
2017-10-19T17:40:34.579Z,9.00
2017-10-19T17:43:03.573Z,8.73
2017-10-19T17:45:31.822Z,9.85
2017-10-19T17:48:00.094Z,8.65
2017-10-19T17:50:28.367Z,9.85
2017-10-19T17:52:56.674Z,9.93
2017-10-19T17:55:25.780Z,9.77
2017-10-19T17:57:54.797Z,9.10
2017-10-19T18:00:23.112Z,10.23
2017-10-19T18:02:51.415Z,10.75
2017-10-19T18:05:27.464Z,9.82
2017-10-19T18:08:03.332Z,10.18
2017-10-19T18:10:32.545Z,9.48
2017-10-19T18:13:00.749Z,9.30
2017-10-19T18:15:28.956Z,9.40
2017-10-19T18:17:57.254Z,10.43
2017-10-19T18:20:26.252Z,10.40
2017-10-19T18:22:55.232Z,10.95
2017-10-19T18:25:23.465Z,9.82
2017-10-19T18:27:51.917Z,10.60
2017-10-19T18:30:20.171Z,11.25
2017-10-19T18:33:18.340Z,11.25
2017-10-19T18:35:47.468Z,10.93
2017-10-19T18:38:15.957Z,11.30
2017-10-19T18:40:44.443Z,12.15
2017-10-19T18:43:12.917Z,11.40
2017-10-19T18:45:41.350Z,10.88
2017-10-19T18:48:10.604Z,12.10
2017-10-19T18:50:39.127Z,12.27
2017-10-19T18:53:08.382Z,11.75
2017-10-19T18:55:36.879Z,12.45
2017-10-19T18:58:05.434Z,12.98
2017-10-19T19:00:33.978Z,11.85
2017-10-19T19:03:02.477Z,12.57
2017-10-19T19:05:30.964Z,11.85
2017-10-19T19:07:59.469Z,13.77
2017-10-19T19:10:27.948Z,14.18
2017-10-19T19:12:56.481Z,13.55
2017-10-19T19:15:25.736Z,13.73
2017-10-19T19:17:54.227Z,15.60
2017-10-19T19:20:22.704Z,15.40
2017-10-19T19:22:51.201Z,15.48
2017-10-19T19:25:19.683Z,14.60
2017-10-19T19:27:48.167Z,14.25
2017-10-19T19:30:20.941Z,13.57
2017-10-19T19:32:50.142Z,13.05
2017-10-19T19:35:18.659Z,14.40
2017-10-19T19:37:47.111Z,12.88
2017-10-19T19:40:15.560Z,13.68
2017-10-19T19:42:44.019Z,12.32
2017-10-19T19:45:12.463Z,12.37
2017-10-19T19:47:41.740Z,12.37
2017-10-19T19:50:10.235Z,12.65
2017-10-19T19:52:38.753Z,13.10
2017-10-19T19:55:07.243Z,14.85
2017-10-19T19:57:35.638Z,13.93
2017-10-19T20:00:04.131Z,13.43
2017-10-19T20:02:32.605Z,14.25
2017-10-19T20:05:01.111Z,14.00
2017-10-19T20:07:29.548Z,12.63
2017-10-19T20:09:58.155Z,12.95
2017-10-19T20:12:26.635Z,14.50
2017-10-19T20:14:55.105Z,13.02
2017-10-19T20:17:23.592Z,13.10
2017-10-19T20:19:52.039Z,13.30
2017-10-19T20:22:20.506Z,12.43
2017-10-19T20:24:49.687Z,13.80
2017-10-19T20:27:17.919Z,13.02
2017-10-19T20:29:46.212Z,14.20
2017-10-19T20:32:14.353Z,13.77
2017-10-19T20:34:43.338Z,14.75
2017-10-19T20:37:11.481Z,13.45
2017-10-19T20:39:39.671Z,12.95
2017-10-19T20:42:07.828Z,13.40
2017-10-19T20:44:35.980Z,14.90
2017-10-19T20:47:04.276Z,13.60
2017-10-19T20:49:32.426Z,14.87
2017-10-19T20:52:00.609Z,14.35
2017-10-19T20:54:28.762Z,14.18
2017-10-19T20:56:56.936Z,14.87
2017-10-19T20:59:25.111Z,12.70
2017-10-19T21:01:53.263Z,14.38
2017-10-19T21:04:22.314Z,13.25
2017-10-19T21:06:50.494Z,14.20
2017-10-19T21:09:18.653Z,13.35
2017-10-19T21:11:46.833Z,13.27
2017-10-19T21:14:15.038Z,14.20
2017-10-19T21:16:43.177Z,13.43
2017-10-19T21:19:11.489Z,12.75
2017-10-19T21:21:40.404Z,14.18
2017-10-19T21:24:08.569Z,14.25
2017-10-19T21:26:36.780Z,15.32
2017-10-19T21:29:04.908Z,13.50
2017-10-19T21:31:33.990Z,13.73
2017-10-19T21:34:02.144Z,14.77
2017-10-19T21:36:30.360Z,13.77
2017-10-19T21:38:59.276Z,12.13
2017-10-19T21:41:27.441Z,12.63
2017-10-19T21:43:55.612Z,12.68
2017-10-19T21:46:23.749Z,12.95
2017-10-19T21:48:52.017Z,13.57
2017-10-19T21:51:20.161Z,12.80
2017-10-19T21:53:48.362Z,13.80
2017-10-19T21:56:16.517Z,13.55
2017-10-19T21:58:44.670Z,12.70
2017-10-19T22:01:12.862Z,14.75
2017-10-19T22:03:41.006Z,14.52
2017-10-19T22:06:09.160Z,12.15
2017-10-19T22:08:37.424Z,12.60
2017-10-19T22:11:06.330Z,14.40
2017-10-19T22:13:34.506Z,14.25
2017-10-19T22:16:02.670Z,14.32
2017-10-19T22:18:31.616Z,13.95
2017-10-19T22:20:59.763Z,14.10
2017-10-19T22:23:28.066Z,16.50
2017-10-19T22:25:56.268Z,16.42
2017-10-19T22:28:25.210Z,15.32
2017-10-19T22:30:53.353Z,14.30
2017-10-19T22:33:21.527Z,14.98
2017-10-19T22:35:49.686Z,15.73
2017-10-19T22:38:17.874Z,16.83
2017-10-19T22:40:46.021Z,16.48
2017-10-19T22:43:14.161Z,15.20
2017-10-19T22:45:42.333Z,15.80
2017-10-19T22:48:11.249Z,15.25
2017-10-19T22:50:39.424Z,15.75
2017-10-19T22:53:07.567Z,15.50
2017-10-19T22:55:35.854Z,14.90
2017-10-19T22:58:04.009Z,16.52
2017-10-19T23:00:32.183Z,15.00
2017-10-19T23:03:00.325Z,14.20
2017-10-19T23:05:28.516Z,13.43
2017-10-19T23:07:56.670Z,13.60
2017-10-19T23:10:24.809Z,12.63
2017-10-19T23:12:53.086Z,14.40
2017-10-19T23:15:21.247Z,11.93
2017-10-19T23:17:49.412Z,13.70
2017-10-19T23:20:17.565Z,12.40
2017-10-19T23:22:45.741Z,13.02
2017-10-19T23:25:13.879Z,12.68
2017-10-19T23:27:42.794Z,13.15
2017-10-19T23:30:11.060Z,12.65
2017-10-19T23:32:39.206Z,12.82
2017-10-19T23:35:07.391Z,14.43
2017-10-19T23:37:36.313Z,12.73
2017-10-19T23:40:04.465Z,12.98
2017-10-19T23:42:33.408Z,12.68
2017-10-19T23:45:01.552Z,14.07
2017-10-19T23:47:29.805Z,13.40
2017-10-19T23:49:57.956Z,13.93
2017-10-19T23:52:26.129Z,14.18
2017-10-19T23:54:54.273Z,13.75
2017-10-19T23:57:22.440Z,15.13
2017-10-19T23:59:50.581Z,13.48
